Terminal Aerodrome Forecast
Issued by NWS Grand Rapids, MI

Home | Current Version | Previous Version | Text Only | Print | Product List | Glossary On
Versions: 1 2 3 4 5 6 7 8 9 10 11 12 13 14 15 16 17 18 19 20
000
FTUS43 KGRR 291727
TAFGRR
TAF
KGRR 291727Z 2918/3018 13008KT P6SM VCSH OVC035
     FM292100 13008KT P6SM VCSH OVC025
     FM300200 VRB03KT 4SM BR OVC015
     FM300600 VRB03KT 1/2SM FG OVC005
     FM301400 15005KT 4SM BR SCT005 OVC015
     FM301600 23006KT P6SM BKN025=

USA.gov is the U.S. government's official web portal to all federal, state and local government web resources and services.